sensor_id;sensor_type;location;lat;lon;timestamp;pressure;altitude;pressure_sealevel;temperature;humidity
45991;BME280;31721;41.740;-88.000;2023-02-28T00:01:33;96710.66;;;6.91;59.70
45991;BME280;31721;41.740;-88.000;2023-02-28T00:04:01;96723.09;;;6.40;60.06
45991;BME280;31721;41.740;-88.000;2023-02-28T00:06:29;96724.94;;;6.15;60.74
45991;BME280;31721;41.740;-88.000;2023-02-28T00:08:57;96737.70;;;6.35;60.09
45991;BME280;31721;41.740;-88.000;2023-02-28T00:11:25;96736.66;;;6.11;60.61
45991;BME280;31721;41.740;-88.000;2023-02-28T00:13:53;96757.25;;;6.10;60.08
45991;BME280;31721;41.740;-88.000;2023-02-28T00:16:22;96759.86;;;5.86;60.41
45991;BME280;31721;41.740;-88.000;2023-02-28T00:18:51;96776.04;;;6.09;60.26
45991;BME280;31721;41.740;-88.000;2023-02-28T00:21:20;96773.77;;;5.79;60.00
45991;BME280;31721;41.740;-88.000;2023-02-28T00:23:48;96784.77;;;5.74;60.22
45991;BME280;31721;41.740;-88.000;2023-02-28T00:26:16;96804.55;;;5.60;60.56
45991;BME280;31721;41.740;-88.000;2023-02-28T00:28:45;96807.81;;;5.12;61.68
45991;BME280;31721;41.740;-88.000;2023-02-28T00:31:13;96823.50;;;5.45;61.29
45991;BME280;31721;41.740;-88.000;2023-02-28T00:33:41;96832.32;;;5.48;61.01
45991;BME280;31721;41.740;-88.000;2023-02-28T00:36:11;96853.99;;;5.42;61.19
45991;BME280;31721;41.740;-88.000;2023-02-28T00:38:40;96855.40;;;5.79;60.51
45991;BME280;31721;41.740;-88.000;2023-02-28T00:41:09;96868.10;;;4.98;61.43
45991;BME280;31721;41.740;-88.000;2023-02-28T00:43:39;96880.66;;;5.37;60.87
45991;BME280;31721;41.740;-88.000;2023-02-28T00:46:08;96888.96;;;5.56;60.60
45991;BME280;31721;41.740;-88.000;2023-02-28T00:48:36;96905.04;;;5.21;60.98
45991;BME280;31721;41.740;-88.000;2023-02-28T00:51:05;96922.61;;;5.11;61.16
45991;BME280;31721;41.740;-88.000;2023-02-28T00:53:33;96931.21;;;5.18;60.89
45991;BME280;31721;41.740;-88.000;2023-02-28T00:56:02;96933.97;;;4.84;61.46
45991;BME280;31721;41.740;-88.000;2023-02-28T00:58:31;96937.51;;;4.44;61.98
45991;BME280;31721;41.740;-88.000;2023-02-28T01:00:59;96942.40;;;5.08;60.96
45991;BME280;31721;41.740;-88.000;2023-02-28T01:03:27;96959.61;;;5.07;61.04
45991;BME280;31721;41.740;-88.000;2023-02-28T01:05:56;96970.19;;;5.01;60.94
45991;BME280;31721;41.740;-88.000;2023-02-28T01:08:24;96985.52;;;5.19;60.22
45991;BME280;31721;41.740;-88.000;2023-02-28T01:10:52;96986.55;;;4.28;61.57
45991;BME280;31721;41.740;-88.000;2023-02-28T01:13:20;97013.34;;;4.63;61.34
45991;BME280;31721;41.740;-88.000;2023-02-28T01:15:51;97006.85;;;4.94;60.74
45991;BME280;31721;41.740;-88.000;2023-02-28T01:18:20;97015.46;;;4.92;60.64
45991;BME280;31721;41.740;-88.000;2023-02-28T01:20:49;97020.20;;;4.84;60.21
45991;BME280;31721;41.740;-88.000;2023-02-28T01:23:17;97020.73;;;4.73;60.66
45991;BME280;31721;41.740;-88.000;2023-02-28T01:25:44;97027.83;;;4.44;61.35
45991;BME280;31721;41.740;-88.000;2023-02-28T01:28:13;97033.66;;;4.48;61.16
45991;BME280;31721;41.740;-88.000;2023-02-28T01:30:40;97041.30;;;4.72;60.94
45991;BME280;31721;41.740;-88.000;2023-02-28T01:33:08;97033.25;;;4.45;61.48
45991;BME280;31721;41.740;-88.000;2023-02-28T01:35:36;97048.57;;;4.57;61.33
45991;BME280;31721;41.740;-88.000;2023-02-28T01:38:04;97059.93;;;4.21;61.62
45991;BME280;31721;41.740;-88.000;2023-02-28T01:40:32;97065.57;;;4.43;61.50
45991;BME280;31721;41.740;-88.000;2023-02-28T01:43:00;97074.38;;;4.70;60.66
45991;BME280;31721;41.740;-88.000;2023-02-28T01:45:29;97076.36;;;4.76;60.93
45991;BME280;31721;41.740;-88.000;2023-02-28T01:48:02;97088.83;;;4.85;60.71
45991;BME280;31721;41.740;-88.000;2023-02-28T01:50:34;97087.86;;;4.83;60.52
45991;BME280;31721;41.740;-88.000;2023-02-28T01:53:04;97107.26;;;4.91;60.51
45991;BME280;31721;41.740;-88.000;2023-02-28T01:55:35;97121.94;;;4.73;60.51
45991;BME280;31721;41.740;-88.000;2023-02-28T01:58:05;97129.03;;;4.61;60.36
45991;BME280;31721;41.740;-88.000;2023-02-28T02:00:34;97127.92;;;4.07;60.56
45991;BME280;31721;41.740;-88.000;2023-02-28T02:03:08;97137.45;;;4.23;60.42
45991;BME280;31721;41.740;-88.000;2023-02-28T02:05:40;97147.47;;;4.12;60.61
45991;BME280;31721;41.740;-88.000;2023-02-28T02:08:11;97153.94;;;4.47;60.28
45991;BME280;31721;41.740;-88.000;2023-02-28T02:10:43;97162.69;;;4.20;60.08
45991;BME280;31721;41.740;-88.000;2023-02-28T02:13:33;97167.22;;;4.17;60.18
45991;BME280;31721;41.740;-88.000;2023-02-28T02:16:10;97180.70;;;3.91;60.44
45991;BME280;31721;41.740;-88.000;2023-02-28T02:18:46;97190.42;;;3.80;60.89
45991;BME280;31721;41.740;-88.000;2023-02-28T02:21:43;97203.91;;;3.86;60.55
45991;BME280;31721;41.740;-88.000;2023-02-28T02:24:40;97221.03;;;3.61;61.07
45991;BME280;31721;41.740;-88.000;2023-02-28T02:27:22;97232.79;;;3.67;60.80
45991;BME280;31721;41.740;-88.000;2023-02-28T02:30:09;97241.00;;;4.02;60.01
45991;BME280;31721;41.740;-88.000;2023-02-28T02:32:59;97244.47;;;3.46;60.38
45991;BME280;31721;41.740;-88.000;2023-02-28T02:35:32;97258.56;;;4.08;59.45
45991;BME280;31721;41.740;-88.000;2023-02-28T02:38:10;97266.37;;;3.37;60.79
45991;BME280;31721;41.740;-88.000;2023-02-28T02:40:48;97274.20;;;3.41;60.29
45991;BME280;31721;41.740;-88.000;2023-02-28T02:43:22;97277.09;;;3.74;59.99
45991;BME280;31721;41.740;-88.000;2023-02-28T02:45:56;97288.92;;;3.25;61.05
45991;BME280;31721;41.740;-88.000;2023-02-28T02:48:29;97287.50;;;3.21;60.48
45991;BME280;31721;41.740;-88.000;2023-02-28T02:51:00;97301.80;;;3.27;60.31
45991;BME280;31721;41.740;-88.000;2023-02-28T02:53:32;97303.23;;;2.71;60.88
45991;BME280;31721;41.740;-88.000;2023-02-28T02:56:04;97308.45;;;2.73;60.53
45991;BME280;31721;41.740;-88.000;2023-02-28T02:58:37;97316.77;;;3.06;60.66
45991;BME280;31721;41.740;-88.000;2023-02-28T03:01:06;97323.20;;;2.88;59.95
45991;BME280;31721;41.740;-88.000;2023-02-28T03:03:35;97326.04;;;3.02;60.02
45991;BME280;31721;41.740;-88.000;2023-02-28T03:06:03;97348.47;;;3.25;59.99
45991;BME280;31721;41.740;-88.000;2023-02-28T03:08:36;97368.81;;;2.57;60.85
45991;BME280;31721;41.740;-88.000;2023-02-28T03:11:06;97360.37;;;2.64;60.79
45991;BME280;31721;41.740;-88.000;2023-02-28T03:13:47;97361.91;;;3.18;60.24
45991;BME280;31721;41.740;-88.000;2023-02-28T03:16:36;97361.53;;;2.61;60.75
45991;BME280;31721;41.740;-88.000;2023-02-28T03:19:22;97368.23;;;2.38;60.70
45991;BME280;31721;41.740;-88.000;2023-02-28T03:22:01;97376.42;;;2.84;59.92
45991;BME280;31721;41.740;-88.000;2023-02-28T03:24:37;97374.90;;;2.87;60.03
45991;BME280;31721;41.740;-88.000;2023-02-28T03:27:12;97383.04;;;2.83;59.89
45991;BME280;31721;41.740;-88.000;2023-02-28T03:29:48;97395.68;;;2.78;59.97
45991;BME280;31721;41.740;-88.000;2023-02-28T03:32:23;97394.22;;;3.22;59.24
45991;BME280;31721;41.740;-88.000;2023-02-28T03:34:58;97403.67;;;2.96;59.45
45991;BME280;31721;41.740;-88.000;2023-02-28T03:37:29;97415.67;;;2.78;59.19
45991;BME280;31721;41.740;-88.000;2023-02-28T03:40:02;97406.59;;;3.24;59.32
45991;BME280;31721;41.740;-88.000;2023-02-28T03:42:33;97417.61;;;3.22;59.19
45991;BME280;31721;41.740;-88.000;2023-02-28T03:45:05;97423.32;;;2.93;59.22
45991;BME280;31721;41.740;-88.000;2023-02-28T03:47:40;97434.89;;;2.97;59.03
45991;BME280;31721;41.740;-88.000;2023-02-28T03:50:12;97440.28;;;2.45;59.82
45991;BME280;31721;41.740;-88.000;2023-02-28T03:52:46;97449.70;;;3.05;59.42
45991;BME280;31721;41.740;-88.000;2023-02-28T03:55:16;97454.78;;;2.65;59.49
45991;BME280;31721;41.740;-88.000;2023-02-28T03:57:53;97460.19;;;2.49;60.62
45991;BME280;31721;41.740;-88.000;2023-02-28T04:00:30;97468.95;;;2.29;61.07
45991;BME280;31721;41.740;-88.000;2023-02-28T04:03:00;97471.81;;;2.20;60.85
45991;BME280;31721;41.740;-88.000;2023-02-28T04:05:28;97479.33;;;2.21;61.04
45991;BME280;31721;41.740;-88.000;2023-02-28T04:08:04;97483.41;;;1.94;61.72
45991;BME280;31721;41.740;-88.000;2023-02-28T04:10:32;97497.89;;;2.04;61.77
45991;BME280;31721;41.740;-88.000;2023-02-28T04:13:05;97497.67;;;2.30;60.94
45991;BME280;31721;41.740;-88.000;2023-02-28T04:15:33;97517.60;;;2.01;60.94
45991;BME280;31721;41.740;-88.000;2023-02-28T04:18:00;97517.70;;;2.26;60.33
45991;BME280;31721;41.740;-88.000;2023-02-28T04:20:28;97532.26;;;1.86;60.60
45991;BME280;31721;41.740;-88.000;2023-02-28T04:22:56;97536.72;;;2.15;60.10
45991;BME280;31721;41.740;-88.000;2023-02-28T04:25:23;97535.74;;;1.83;60.65
45991;BME280;31721;41.740;-88.000;2023-02-28T04:27:51;97531.51;;;1.90;60.23
45991;BME280;31721;41.740;-88.000;2023-02-28T04:30:18;97532.15;;;1.78;60.60
45991;BME280;31721;41.740;-88.000;2023-02-28T04:32:46;97538.72;;;1.89;61.05
45991;BME280;31721;41.740;-88.000;2023-02-28T04:35:14;97554.08;;;1.72;61.29
45991;BME280;31721;41.740;-88.000;2023-02-28T04:37:41;97554.74;;;1.98;60.33
45991;BME280;31721;41.740;-88.000;2023-02-28T04:40:10;97567.08;;;1.79;60.97
45991;BME280;31721;41.740;-88.000;2023-02-28T04:42:38;97571.88;;;1.90;60.81
45991;BME280;31721;41.740;-88.000;2023-02-28T04:45:07;97574.07;;;2.21;60.37
45991;BME280;31721;41.740;-88.000;2023-02-28T04:47:35;97582.00;;;1.85;60.22
45991;BME280;31721;41.740;-88.000;2023-02-28T04:50:03;97581.98;;;1.96;60.53
45991;BME280;31721;41.740;-88.000;2023-02-28T04:52:31;97587.69;;;1.71;60.68
45991;BME280;31721;41.740;-88.000;2023-02-28T04:54:59;97589.10;;;1.94;60.05
45991;BME280;31721;41.740;-88.000;2023-02-28T04:57:27;97593.53;;;2.12;60.12
45991;BME280;31721;41.740;-88.000;2023-02-28T04:59:54;97592.88;;;2.30;59.79
45991;BME280;31721;41.740;-88.000;2023-02-28T05:02:22;97592.02;;;1.98;59.56
45991;BME280;31721;41.740;-88.000;2023-02-28T05:04:50;97594.07;;;1.94;59.41
45991;BME280;31721;41.740;-88.000;2023-02-28T05:07:18;97595.43;;;2.19;59.24
45991;BME280;31721;41.740;-88.000;2023-02-28T05:09:46;97609.69;;;2.66;58.65
45991;BME280;31721;41.740;-88.000;2023-02-28T05:12:13;97619.55;;;2.63;59.18
45991;BME280;31721;41.740;-88.000;2023-02-28T05:14:41;97620.88;;;2.69;59.26
45991;BME280;31721;41.740;-88.000;2023-02-28T05:17:09;97629.10;;;2.58;59.19
45991;BME280;31721;41.740;-88.000;2023-02-28T05:19:37;97636.56;;;2.85;59.32
45991;BME280;31721;41.740;-88.000;2023-02-28T05:22:11;97639.13;;;2.85;59.45
45991;BME280;31721;41.740;-88.000;2023-02-28T05:24:40;97638.53;;;2.70;59.26
45991;BME280;31721;41.740;-88.000;2023-02-28T05:27:08;97643.84;;;3.03;59.40
45991;BME280;31721;41.740;-88.000;2023-02-28T05:29:36;97642.08;;;2.98;59.26
45991;BME280;31721;41.740;-88.000;2023-02-28T05:32:04;97645.57;;;2.78;59.27
45991;BME280;31721;41.740;-88.000;2023-02-28T05:34:32;97657.01;;;2.73;59.08
45991;BME280;31721;41.740;-88.000;2023-02-28T05:36:59;97664.63;;;2.77;59.06
45991;BME280;31721;41.740;-88.000;2023-02-28T05:39:27;97668.22;;;2.97;59.27
45991;BME280;31721;41.740;-88.000;2023-02-28T05:41:54;97674.29;;;3.05;58.81
45991;BME280;31721;41.740;-88.000;2023-02-28T05:44:23;97674.96;;;2.78;59.24
45991;BME280;31721;41.740;-88.000;2023-02-28T05:46:50;97678.72;;;3.05;59.09
45991;BME280;31721;41.740;-88.000;2023-02-28T05:49:17;97682.34;;;3.06;59.14
45991;BME280;31721;41.740;-88.000;2023-02-28T05:51:45;97695.36;;;2.33;59.77
45991;BME280;31721;41.740;-88.000;2023-02-28T05:54:12;97699.13;;;2.88;59.33
45991;BME280;31721;41.740;-88.000;2023-02-28T05:56:40;97699.81;;;2.85;59.72
45991;BME280;31721;41.740;-88.000;2023-02-28T05:59:07;97707.22;;;3.01;59.55
45991;BME280;31721;41.740;-88.000;2023-02-28T06:01:37;97713.48;;;3.07;59.41
45991;BME280;31721;41.740;-88.000;2023-02-28T06:04:07;97724.71;;;2.88;59.65
45991;BME280;31721;41.740;-88.000;2023-02-28T06:06:35;97722.98;;;2.76;59.80
45991;BME280;31721;41.740;-88.000;2023-02-28T06:09:04;97738.76;;;2.19;60.43
45991;BME280;31721;41.740;-88.000;2023-02-28T06:11:32;97744.49;;;2.65;60.12
45991;BME280;31721;41.740;-88.000;2023-02-28T06:14:02;97751.26;;;2.73;59.77
45991;BME280;31721;41.740;-88.000;2023-02-28T06:16:31;97749.63;;;2.59;60.18
45991;BME280;31721;41.740;-88.000;2023-02-28T06:19:02;97755.84;;;2.56;59.98
45991;BME280;31721;41.740;-88.000;2023-02-28T06:21:31;97758.74;;;2.56;60.23
45991;BME280;31721;41.740;-88.000;2023-02-28T06:23:59;97764.40;;;2.38;60.35
45991;BME280;31721;41.740;-88.000;2023-02-28T06:26:27;97766.37;;;2.41;60.56
45991;BME280;31721;41.740;-88.000;2023-02-28T06:28:55;97774.39;;;2.59;60.54
45991;BME280;31721;41.740;-88.000;2023-02-28T06:31:23;97780.79;;;2.65;60.17
45991;BME280;31721;41.740;-88.000;2023-02-28T06:33:51;97789.65;;;3.09;59.96
45991;BME280;31721;41.740;-88.000;2023-02-28T06:36:19;97790.31;;;2.65;60.14
45991;BME280;31721;41.740;-88.000;2023-02-28T06:38:47;97793.28;;;2.87;60.18
45991;BME280;31721;41.740;-88.000;2023-02-28T06:41:15;97794.96;;;2.75;59.96
45991;BME280;31721;41.740;-88.000;2023-02-28T06:43:43;97799.76;;;2.72;60.33
45991;BME280;31721;41.740;-88.000;2023-02-28T06:46:13;97801.58;;;2.91;59.99
45991;BME280;31721;41.740;-88.000;2023-02-28T06:48:42;97815.12;;;2.53;60.57
45991;BME280;31721;41.740;-88.000;2023-02-28T06:51:11;97817.71;;;2.78;60.28
45991;BME280;31721;41.740;-88.000;2023-02-28T06:53:40;97821.37;;;2.84;60.43
45991;BME280;31721;41.740;-88.000;2023-02-28T06:56:09;97835.43;;;2.76;60.74
45991;BME280;31721;41.740;-88.000;2023-02-28T06:58:37;97830.66;;;2.41;61.35
45991;BME280;31721;41.740;-88.000;2023-02-28T07:01:06;97827.60;;;2.67;61.02
45991;BME280;31721;41.740;-88.000;2023-02-28T07:03:35;97832.22;;;2.66;60.74
45991;BME280;31721;41.740;-88.000;2023-02-28T07:06:05;97835.35;;;2.99;60.64
45991;BME280;31721;41.740;-88.000;2023-02-28T07:08:33;97837.48;;;3.01;60.26
45991;BME280;31721;41.740;-88.000;2023-02-28T07:11:01;97848.58;;;2.85;60.48
45991;BME280;31721;41.740;-88.000;2023-02-28T07:13:29;97850.36;;;2.97;60.55
45991;BME280;31721;41.740;-88.000;2023-02-28T07:16:00;97855.66;;;2.84;60.37
45991;BME280;31721;41.740;-88.000;2023-02-28T07:18:28;97864.20;;;2.95;60.53
45991;BME280;31721;41.740;-88.000;2023-02-28T07:20:56;97863.97;;;2.84;60.68
45991;BME280;31721;41.740;-88.000;2023-02-28T07:23:23;97869.24;;;2.84;60.66
45991;BME280;31721;41.740;-88.000;2023-02-28T07:25:51;97876.61;;;3.14;60.53
45991;BME280;31721;41.740;-88.000;2023-02-28T07:28:19;97874.51;;;3.18;60.18
45991;BME280;31721;41.740;-88.000;2023-02-28T07:30:47;97887.16;;;3.06;60.22
45991;BME280;31721;41.740;-88.000;2023-02-28T07:33:15;97887.97;;;3.01;60.63
45991;BME280;31721;41.740;-88.000;2023-02-28T07:35:43;97892.58;;;3.02;60.27
45991;BME280;31721;41.740;-88.000;2023-02-28T07:38:12;97896.67;;;3.03;60.42
45991;BME280;31721;41.740;-88.000;2023-02-28T07:40:40;97903.06;;;3.19;60.53
45991;BME280;31721;41.740;-88.000;2023-02-28T07:43:07;97906.28;;;3.32;60.41
45991;BME280;31721;41.740;-88.000;2023-02-28T07:45:35;97913.18;;;3.43;59.96
45991;BME280;31721;41.740;-88.000;2023-02-28T07:48:03;97913.04;;;3.44;59.98
45991;BME280;31721;41.740;-88.000;2023-02-28T07:50:31;97919.00;;;3.44;59.69
45991;BME280;31721;41.740;-88.000;2023-02-28T07:52:59;97916.62;;;3.53;59.87
45991;BME280;31721;41.740;-88.000;2023-02-28T07:55:27;97916.50;;;3.46;59.47
45991;BME280;31721;41.740;-88.000;2023-02-28T07:57:54;97922.42;;;3.61;59.30
45991;BME280;31721;41.740;-88.000;2023-02-28T08:00:24;97925.23;;;3.81;59.68
45991;BME280;31721;41.740;-88.000;2023-02-28T08:02:52;97929.27;;;3.96;59.16
45991;BME280;31721;41.740;-88.000;2023-02-28T08:05:20;97930.81;;;3.68;59.36
45991;BME280;31721;41.740;-88.000;2023-02-28T08:07:49;97930.54;;;3.73;59.00
45991;BME280;31721;41.740;-88.000;2023-02-28T08:10:17;97934.95;;;3.79;58.81
45991;BME280;31721;41.740;-88.000;2023-02-28T08:12:45;97943.71;;;3.84;59.14
45991;BME280;31721;41.740;-88.000;2023-02-28T08:15:12;97949.49;;;3.76;59.00
45991;BME280;31721;41.740;-88.000;2023-02-28T08:17:40;97954.28;;;3.71;59.53
45991;BME280;31721;41.740;-88.000;2023-02-28T08:20:08;97956.11;;;3.83;59.37
45991;BME280;31721;41.740;-88.000;2023-02-28T08:22:37;97957.78;;;3.77;59.27
45991;BME280;31721;41.740;-88.000;2023-02-28T08:25:06;97966.07;;;3.75;58.99
45991;BME280;31721;41.740;-88.000;2023-02-28T08:27:35;97973.85;;;3.46;59.28
45991;BME280;31721;41.740;-88.000;2023-02-28T08:30:04;97974.70;;;3.71;59.30
45991;BME280;31721;41.740;-88.000;2023-02-28T08:32:33;97979.82;;;3.48;59.72
45991;BME280;31721;41.740;-88.000;2023-02-28T08:35:01;97981.69;;;3.59;59.38
45991;BME280;31721;41.740;-88.000;2023-02-28T08:37:29;97984.05;;;3.83;59.54
45991;BME280;31721;41.740;-88.000;2023-02-28T08:39:57;97986.90;;;3.44;59.25
45991;BME280;31721;41.740;-88.000;2023-02-28T08:42:25;97994.42;;;3.69;59.31
45991;BME280;31721;41.740;-88.000;2023-02-28T08:44:52;97997.17;;;3.65;59.14
45991;BME280;31721;41.740;-88.000;2023-02-28T08:47:20;98000.24;;;3.84;59.32
45991;BME280;31721;41.740;-88.000;2023-02-28T08:49:48;98006.18;;;3.51;59.51
45991;BME280;31721;41.740;-88.000;2023-02-28T08:52:15;98006.37;;;3.57;59.31
45991;BME280;31721;41.740;-88.000;2023-02-28T08:54:43;98013.05;;;3.54;59.02
45991;BME280;31721;41.740;-88.000;2023-02-28T08:57:10;98021.93;;;3.44;59.60
45991;BME280;31721;41.740;-88.000;2023-02-28T08:59:38;98017.65;;;3.44;59.51
45991;BME280;31721;41.740;-88.000;2023-02-28T09:02:05;98018.94;;;3.09;60.02
45991;BME280;31721;41.740;-88.000;2023-02-28T09:04:34;98023.78;;;3.24;59.60
45991;BME280;31721;41.740;-88.000;2023-02-28T09:07:01;98028.05;;;3.66;59.62
45991;BME280;31721;41.740;-88.000;2023-02-28T09:09:28;98031.28;;;3.63;59.34
45991;BME280;31721;41.740;-88.000;2023-02-28T09:11:57;98036.82;;;3.29;59.84
45991;BME280;31721;41.740;-88.000;2023-02-28T09:14:24;98041.91;;;2.96;60.18
45991;BME280;31721;41.740;-88.000;2023-02-28T09:16:52;98044.47;;;3.36;59.92
45991;BME280;31721;41.740;-88.000;2023-02-28T09:19:20;98049.18;;;3.01;59.92
45991;BME280;31721;41.740;-88.000;2023-02-28T09:21:47;98055.73;;;3.38;59.78
45991;BME280;31721;41.740;-88.000;2023-02-28T09:24:15;98056.16;;;3.48;59.70
45991;BME280;31721;41.740;-88.000;2023-02-28T09:26:43;98061.06;;;3.57;59.47
45991;BME280;31721;41.740;-88.000;2023-02-28T09:29:12;98062.18;;;3.43;59.63
45991;BME280;31721;41.740;-88.000;2023-02-28T09:31:39;98070.99;;;3.20;60.19
45991;BME280;31721;41.740;-88.000;2023-02-28T09:34:07;98074.41;;;3.18;59.72
45991;BME280;31721;41.740;-88.000;2023-02-28T09:36:34;98078.38;;;3.37;59.94
45991;BME280;31721;41.740;-88.000;2023-02-28T09:39:02;98082.65;;;3.43;59.58
45991;BME280;31721;41.740;-88.000;2023-02-28T09:41:36;98087.60;;;3.65;59.65
45991;BME280;31721;41.740;-88.000;2023-02-28T09:44:05;98093.12;;;3.38;59.31
45991;BME280;31721;41.740;-88.000;2023-02-28T09:46:40;98099.41;;;3.44;59.50
45991;BME280;31721;41.740;-88.000;2023-02-28T09:49:14;98097.64;;;2.64;60.36
45991;BME280;31721;41.740;-88.000;2023-02-28T09:51:49;98101.58;;;2.68;60.44
45991;BME280;31721;41.740;-88.000;2023-02-28T09:54:19;98109.19;;;3.32;59.87
45991;BME280;31721;41.740;-88.000;2023-02-28T09:56:51;98110.93;;;3.11;59.81
45991;BME280;31721;41.740;-88.000;2023-02-28T09:59:32;98125.74;;;2.89;59.69
45991;BME280;31721;41.740;-88.000;2023-02-28T10:02:15;98129.28;;;3.05;59.96
45991;BME280;31721;41.740;-88.000;2023-02-28T10:04:49;98132.83;;;3.22;59.75
45991;BME280;31721;41.740;-88.000;2023-02-28T10:07:26;98132.35;;;3.02;60.01
45991;BME280;31721;41.740;-88.000;2023-02-28T10:10:02;98140.42;;;3.21;59.64
45991;BME280;31721;41.740;-88.000;2023-02-28T10:12:33;98145.35;;;3.28;59.58
45991;BME280;31721;41.740;-88.000;2023-02-28T10:15:04;98154.28;;;3.50;59.46
45991;BME280;31721;41.740;-88.000;2023-02-28T10:17:38;98161.76;;;3.24;59.33
45991;BME280;31721;41.740;-88.000;2023-02-28T10:20:11;98171.96;;;3.24;59.38
45991;BME280;31721;41.740;-88.000;2023-02-28T10:22:50;98169.46;;;3.13;59.59
45991;BME280;31721;41.740;-88.000;2023-02-28T10:25:21;98179.44;;;3.03;59.67
45991;BME280;31721;41.740;-88.000;2023-02-28T10:27:50;98187.68;;;3.46;59.20
45991;BME280;31721;41.740;-88.000;2023-02-28T10:30:21;98190.36;;;3.16;59.46
45991;BME280;31721;41.740;-88.000;2023-02-28T10:32:51;98186.72;;;3.07;59.51
45991;BME280;31721;41.740;-88.000;2023-02-28T10:35:20;98194.28;;;3.19;59.26
45991;BME280;31721;41.740;-88.000;2023-02-28T10:37:50;98199.61;;;3.10;59.13
45991;BME280;31721;41.740;-88.000;2023-02-28T10:40:31;98199.92;;;3.41;58.92
45991;BME280;31721;41.740;-88.000;2023-02-28T10:43:03;98208.47;;;3.37;59.19
45991;BME280;31721;41.740;-88.000;2023-02-28T10:45:32;98205.07;;;3.37;59.31
45991;BME280;31721;41.740;-88.000;2023-02-28T10:48:02;98207.62;;;3.16;59.11
45991;BME280;31721;41.740;-88.000;2023-02-28T10:50:35;98205.29;;;3.26;59.43
45991;BME280;31721;41.740;-88.000;2023-02-28T10:53:16;98220.59;;;2.89;59.04
45991;BME280;31721;41.740;-88.000;2023-02-28T10:55:57;98220.54;;;3.12;59.24
45991;BME280;31721;41.740;-88.000;2023-02-28T10:58:27;98225.93;;;3.37;59.01
45991;BME280;31721;41.740;-88.000;2023-02-28T11:00:55;98227.73;;;3.52;59.05
45991;BME280;31721;41.740;-88.000;2023-02-28T11:03:31;98228.40;;;3.33;58.77
45991;BME280;31721;41.740;-88.000;2023-02-28T11:06:05;98229.95;;;3.41;58.75
45991;BME280;31721;41.740;-88.000;2023-02-28T11:08:34;98228.91;;;3.43;58.74
45991;BME280;31721;41.740;-88.000;2023-02-28T11:11:11;98235.85;;;3.39;58.61
45991;BME280;31721;41.740;-88.000;2023-02-28T11:13:38;98238.62;;;3.51;58.26
45991;BME280;31721;41.740;-88.000;2023-02-28T11:16:08;98239.33;;;3.67;58.37
45991;BME280;31721;41.740;-88.000;2023-02-28T11:18:42;98242.88;;;3.63;58.11
45991;BME280;31721;41.740;-88.000;2023-02-28T11:21:17;98240.58;;;3.56;58.19
45991;BME280;31721;41.740;-88.000;2023-02-28T11:23:46;98245.74;;;3.44;58.19
45991;BME280;31721;41.740;-88.000;2023-02-28T11:26:35;98258.42;;;3.78;58.32
45991;BME280;31721;41.740;-88.000;2023-02-28T11:29:12;98266.90;;;3.64;57.63
45991;BME280;31721;41.740;-88.000;2023-02-28T11:31:42;98272.66;;;3.90;57.88
45991;BME280;31721;41.740;-88.000;2023-02-28T11:34:26;98279.78;;;3.56;57.95
45991;BME280;31721;41.740;-88.000;2023-02-28T11:36:56;98280.21;;;3.74;57.77
45991;BME280;31721;41.740;-88.000;2023-02-28T11:39:26;98290.00;;;3.87;57.82
45991;BME280;31721;41.740;-88.000;2023-02-28T11:42:56;98291.24;;;3.78;57.65
45991;BME280;31721;41.740;-88.000;2023-02-28T11:45:41;98293.08;;;3.64;57.61
45991;BME280;31721;41.740;-88.000;2023-02-28T11:48:17;98295.66;;;3.61;58.07
45991;BME280;31721;41.740;-88.000;2023-02-28T11:50:53;98296.40;;;3.46;57.21
45991;BME280;31721;41.740;-88.000;2023-02-28T11:53:37;98304.67;;;3.73;57.81
45991;BME280;31721;41.740;-88.000;2023-02-28T11:56:12;98308.88;;;3.69;57.37
45991;BME280;31721;41.740;-88.000;2023-02-28T11:58:50;98318.95;;;3.61;57.70
45991;BME280;31721;41.740;-88.000;2023-02-28T12:01:30;98319.41;;;3.86;57.75
45991;BME280;31721;41.740;-88.000;2023-02-28T12:04:13;98321.65;;;3.86;57.49
45991;BME280;31721;41.740;-88.000;2023-02-28T12:06:47;98321.05;;;3.96;57.60
45991;BME280;31721;41.740;-88.000;2023-02-28T12:09:33;98326.86;;;4.15;57.41
45991;BME280;31721;41.740;-88.000;2023-02-28T12:12:17;98333.00;;;4.25;57.29
45991;BME280;31721;41.740;-88.000;2023-02-28T12:15:01;98342.94;;;4.36;56.94
45991;BME280;31721;41.740;-88.000;2023-02-28T12:17:45;98353.87;;;3.74;57.06
45991;BME280;31721;41.740;-88.000;2023-02-28T12:20:25;98371.24;;;3.99;57.14
45991;BME280;31721;41.740;-88.000;2023-02-28T12:23:02;98380.19;;;3.93;56.99
45991;BME280;31721;41.740;-88.000;2023-02-28T12:25:44;98387.55;;;3.84;56.92
45991;BME280;31721;41.740;-88.000;2023-02-28T12:28:20;98399.50;;;3.68;56.74
45991;BME280;31721;41.740;-88.000;2023-02-28T12:30:54;98408.70;;;3.88;57.19
45991;BME280;31721;41.740;-88.000;2023-02-28T12:33:31;98413.44;;;3.52;57.41
45991;BME280;31721;41.740;-88.000;2023-02-28T12:36:04;98420.57;;;3.68;57.53
45991;BME280;31721;41.740;-88.000;2023-02-28T12:38:37;98435.21;;;3.61;57.31
45991;BME280;31721;41.740;-88.000;2023-02-28T12:41:11;98442.60;;;3.19;56.83
45991;BME280;31721;41.740;-88.000;2023-02-28T12:43:43;98450.70;;;3.48;56.92
45991;BME280;31721;41.740;-88.000;2023-02-28T12:46:17;98451.56;;;3.67;57.06
45991;BME280;31721;41.740;-88.000;2023-02-28T12:48:52;98457.62;;;3.80;57.19
45991;BME280;31721;41.740;-88.000;2023-02-28T12:51:22;98467.42;;;3.78;57.09
45991;BME280;31721;41.740;-88.000;2023-02-28T12:53:57;98478.64;;;3.79;56.99
45991;BME280;31721;41.740;-88.000;2023-02-28T12:56:34;98479.49;;;3.78;57.07
45991;BME280;31721;41.740;-88.000;2023-02-28T12:59:13;98485.00;;;3.69;57.08
45991;BME280;31721;41.740;-88.000;2023-02-28T13:01:57;98490.40;;;3.88;56.93
45991;BME280;31721;41.740;-88.000;2023-02-28T13:09:09;98493.55;;;3.75;56.88
45991;BME280;31721;41.740;-88.000;2023-02-28T13:11:42;98496.46;;;3.64;56.74
45991;BME280;31721;41.740;-88.000;2023-02-28T13:14:26;98501.18;;;3.67;56.68
45991;BME280;31721;41.740;-88.000;2023-02-28T13:17:00;98506.54;;;4.01;57.09